createdAt,value
2017-09-22T00:00:54.706Z,0.00
2017-09-22T00:01:53.705Z,0.00
2017-09-22T00:02:53.797Z,0.00
2017-09-22T00:03:53.726Z,0.00
2017-09-22T00:04:53.809Z,0.00
2017-09-22T00:05:53.748Z,0.00
2017-09-22T00:06:53.832Z,0.00
2017-09-22T00:07:53.767Z,0.00
2017-09-22T00:08:53.839Z,0.00
2017-09-22T00:09:53.782Z,0.00
2017-09-22T00:10:53.854Z,0.00
2017-09-22T00:11:53.805Z,0.00
2017-09-22T00:12:53.861Z,0.00
2017-09-22T00:13:53.825Z,0.00
2017-09-22T00:14:53.873Z,0.00
2017-09-22T00:15:53.847Z,0.00
2017-09-22T00:16:53.887Z,0.00
2017-09-22T00:17:53.867Z,0.00
2017-09-22T00:18:53.899Z,0.00
2017-09-22T00:19:53.888Z,0.00
2017-09-22T00:20:53.911Z,0.00
2017-09-22T00:21:53.904Z,0.00
2017-09-22T00:22:54.032Z,0.00
2017-09-22T00:23:53.936Z,0.00
2017-09-22T00:24:54.040Z,0.00
2017-09-22T00:25:53.948Z,0.00
2017-09-22T00:26:54.055Z,0.00
2017-09-22T00:27:53.969Z,0.00
2017-09-22T00:28:54.065Z,0.00
2017-09-22T00:29:53.988Z,0.00
2017-09-22T00:30:54.079Z,0.00
2017-09-22T00:31:54.009Z,0.00
2017-09-22T00:32:54.093Z,0.00
2017-09-22T00:33:54.031Z,0.00
2017-09-22T00:34:55.139Z,0.00
2017-09-22T00:35:54.049Z,0.00
2017-09-22T00:36:54.119Z,0.00
2017-09-22T00:37:54.067Z,0.00
2017-09-22T00:38:54.131Z,0.00
2017-09-22T00:39:54.087Z,0.00
2017-09-22T00:40:54.146Z,0.00
2017-09-22T00:41:54.107Z,0.00
2017-09-22T00:42:54.157Z,0.00
2017-09-22T00:43:54.136Z,0.00
2017-09-22T00:44:54.171Z,0.00
2017-09-22T00:45:54.148Z,0.00
2017-09-22T00:46:54.183Z,0.00
2017-09-22T00:47:54.170Z,0.00
2017-09-22T00:48:54.199Z,0.00
2017-09-22T00:49:54.189Z,0.00
2017-09-22T00:50:54.312Z,0.00
2017-09-22T00:51:54.209Z,0.00
2017-09-22T00:52:54.324Z,0.00
2017-09-22T00:53:54.235Z,0.00
2017-09-22T00:54:54.335Z,0.00
2017-09-22T00:55:54.250Z,0.00
2017-09-22T00:56:54.349Z,0.00
2017-09-22T00:57:54.272Z,0.00
2017-09-22T00:58:54.362Z,0.00
2017-09-22T00:59:54.288Z,0.00
2017-09-22T01:00:54.373Z,0.00
2017-09-22T01:01:54.309Z,0.00
2017-09-22T01:02:54.388Z,0.00
2017-09-22T01:03:54.329Z,0.00
2017-09-22T01:04:54.402Z,0.00
2017-09-22T01:05:54.346Z,0.00
2017-09-22T01:06:54.413Z,0.00
2017-09-22T01:07:54.369Z,0.00
2017-09-22T01:08:54.427Z,0.00
2017-09-22T01:09:54.390Z,0.00
2017-09-22T01:10:54.440Z,0.00
2017-09-22T01:11:54.410Z,0.00
2017-09-22T01:12:54.452Z,0.00
2017-09-22T01:13:54.426Z,0.00
2017-09-22T01:14:54.472Z,0.00
2017-09-22T01:15:54.451Z,0.00
2017-09-22T01:16:54.483Z,0.00
2017-09-22T01:17:54.467Z,0.00
2017-09-22T01:18:54.497Z,0.00
2017-09-22T01:19:54.485Z,0.00
2017-09-22T01:20:54.626Z,0.00
2017-09-22T01:21:54.511Z,0.00
2017-09-22T01:22:54.619Z,0.00
2017-09-22T01:23:54.526Z,0.00
2017-09-22T01:24:54.634Z,0.00
2017-09-22T01:25:54.547Z,0.00
2017-09-22T01:26:54.643Z,0.00
2017-09-22T01:27:54.569Z,0.00
2017-09-22T01:28:54.660Z,0.00
2017-09-22T01:29:54.586Z,0.00
2017-09-22T01:30:54.669Z,0.00
2017-09-22T01:31:54.608Z,0.00
2017-09-22T01:32:54.685Z,0.00
2017-09-22T01:33:54.623Z,0.00
2017-09-22T01:34:54.704Z,0.00
2017-09-22T01:35:54.651Z,0.00
2017-09-22T01:36:54.709Z,0.00
2017-09-22T01:37:54.664Z,0.00
2017-09-22T01:38:54.721Z,0.00
2017-09-22T01:39:54.691Z,0.00
2017-09-22T01:40:54.734Z,0.00
2017-09-22T01:41:54.705Z,0.00
2017-09-22T01:42:54.755Z,0.00
2017-09-22T01:43:54.724Z,0.00
2017-09-22T01:44:54.764Z,0.00
2017-09-22T01:45:54.741Z,0.00
2017-09-22T01:46:54.774Z,0.00
2017-09-22T01:47:54.767Z,0.00
2017-09-22T01:48:54.787Z,0.00
2017-09-22T01:49:54.795Z,0.00
2017-09-22T01:50:54.903Z,0.00
2017-09-22T01:51:54.802Z,0.00
2017-09-22T01:52:54.914Z,0.00
2017-09-22T01:53:54.819Z,0.00
2017-09-22T01:54:54.929Z,0.00
2017-09-22T01:55:54.841Z,0.00
2017-09-22T01:56:54.939Z,0.00
2017-09-22T01:57:54.863Z,0.00
2017-09-22T01:58:54.953Z,0.00
2017-09-22T01:59:54.882Z,0.00
2017-09-22T02:00:54.964Z,0.00
2017-09-22T02:01:54.898Z,0.00
2017-09-22T02:02:54.980Z,0.00
2017-09-22T02:03:54.917Z,0.00
2017-09-22T02:04:54.995Z,0.00
2017-09-22T02:05:54.936Z,0.00
2017-09-22T02:06:55.006Z,0.00
2017-09-22T02:07:54.958Z,0.00
2017-09-22T02:08:55.124Z,0.00
2017-09-22T02:09:54.974Z,0.00
2017-09-22T02:10:55.031Z,0.00
2017-09-22T02:11:55.000Z,0.00
2017-09-22T02:12:55.048Z,0.00
2017-09-22T02:13:55.015Z,0.00
2017-09-22T02:14:55.063Z,0.00
2017-09-22T02:15:55.035Z,0.00
2017-09-22T02:16:55.075Z,0.00
2017-09-22T02:17:55.052Z,0.00
2017-09-22T02:18:55.083Z,0.00
2017-09-22T02:19:55.076Z,0.00
2017-09-22T02:20:55.104Z,0.00
2017-09-22T02:21:55.092Z,0.00
2017-09-22T02:22:55.219Z,0.00
2017-09-22T02:23:55.112Z,0.00
2017-09-22T02:24:55.226Z,0.00
2017-09-22T02:25:55.129Z,0.00
2017-09-22T02:26:55.237Z,0.00
2017-09-22T02:27:55.149Z,0.00
2017-09-22T02:28:55.247Z,0.00
2017-09-22T02:29:55.168Z,0.00
2017-09-22T02:30:55.262Z,0.00
2017-09-22T02:31:55.190Z,0.00
2017-09-22T02:32:55.275Z,0.00
2017-09-22T02:33:55.204Z,0.00
2017-09-22T02:34:55.288Z,0.00
2017-09-22T02:35:55.227Z,0.00
2017-09-22T02:36:55.302Z,0.00
2017-09-22T02:37:55.244Z,0.00
2017-09-22T02:38:55.312Z,0.00
2017-09-22T02:39:55.265Z,0.00
2017-09-22T02:40:55.333Z,0.00
2017-09-22T02:41:55.282Z,0.00
2017-09-22T02:42:55.338Z,0.00
2017-09-22T02:43:55.302Z,0.00
2017-09-22T02:44:55.354Z,0.00
2017-09-22T02:45:55.320Z,0.00
2017-09-22T02:46:55.367Z,0.00
2017-09-22T02:47:55.343Z,0.00
2017-09-22T02:48:55.376Z,0.00
2017-09-22T02:49:55.363Z,0.00
2017-09-22T02:50:55.391Z,0.00
2017-09-22T02:51:55.379Z,0.00
2017-09-22T02:52:55.402Z,0.00
2017-09-22T02:53:55.395Z,0.00
2017-09-22T02:54:55.418Z,0.00
2017-09-22T02:55:55.414Z,0.00
2017-09-22T02:56:55.532Z,0.00
2017-09-22T02:57:55.437Z,0.00
2017-09-22T02:58:55.546Z,0.00
2017-09-22T02:59:55.450Z,0.00
2017-09-22T03:00:55.560Z,0.00
2017-09-22T03:01:55.472Z,0.00
2017-09-22T03:02:56.596Z,0.00
2017-09-22T03:03:55.491Z,0.00
2017-09-22T03:04:55.586Z,0.00
2017-09-22T03:05:55.518Z,0.00
2017-09-22T03:06:55.598Z,0.00
2017-09-22T03:07:55.531Z,0.00
2017-09-22T03:08:55.610Z,0.00
2017-09-22T03:09:55.546Z,0.00
2017-09-22T03:10:55.624Z,0.00
2017-09-22T03:11:55.568Z,0.00
2017-09-22T03:12:55.635Z,0.00
2017-09-22T03:13:55.594Z,0.00
2017-09-22T03:14:55.652Z,0.00
2017-09-22T03:15:55.606Z,0.00
2017-09-22T03:16:55.661Z,0.00
2017-09-22T03:17:55.619Z,0.00
2017-09-22T03:18:55.673Z,0.00
2017-09-22T03:19:55.643Z,0.00
2017-09-22T03:20:55.687Z,0.00
2017-09-22T03:21:55.659Z,0.00
2017-09-22T03:22:55.700Z,0.00
2017-09-22T03:23:55.680Z,0.00
2017-09-22T03:24:55.713Z,0.00
2017-09-22T03:25:55.699Z,0.00
2017-09-22T03:26:55.725Z,0.00
2017-09-22T03:27:55.716Z,0.00
2017-09-22T03:28:55.739Z,0.00
2017-09-22T03:29:55.731Z,0.00
2017-09-22T03:30:56.780Z,0.00
2017-09-22T03:31:55.760Z,0.00
2017-09-22T03:32:55.869Z,0.00
2017-09-22T03:33:55.771Z,0.00
2017-09-22T03:34:55.882Z,0.00
2017-09-22T03:35:55.789Z,0.00
2017-09-22T03:36:55.896Z,0.00
2017-09-22T03:37:55.808Z,0.00
2017-09-22T03:38:55.907Z,0.00
2017-09-22T03:39:55.824Z,0.00
2017-09-22T03:40:55.918Z,0.00
2017-09-22T03:41:55.851Z,0.00
2017-09-22T03:42:55.935Z,0.00
2017-09-22T03:43:55.864Z,0.00
2017-09-22T03:44:55.944Z,0.00
2017-09-22T03:45:55.883Z,0.00
2017-09-22T03:46:55.957Z,0.00
2017-09-22T03:47:55.901Z,0.00
2017-09-22T03:48:55.971Z,0.00
2017-09-22T03:49:55.922Z,0.00
2017-09-22T03:51:00.590Z,0.00
2017-09-22T03:51:55.937Z,0.00
2017-09-22T03:52:55.999Z,0.00
2017-09-22T03:53:55.959Z,0.00
2017-09-22T03:54:56.010Z,0.00
2017-09-22T03:55:55.976Z,0.00
2017-09-22T03:56:57.046Z,0.00
2017-09-22T03:57:55.989Z,0.00
2017-09-22T03:58:56.033Z,0.00
2017-09-22T03:59:56.011Z,0.00
2017-09-22T04:00:56.050Z,0.00
2017-09-22T04:01:56.029Z,0.00
2017-09-22T04:02:56.060Z,0.00
2017-09-22T04:03:56.050Z,0.00
2017-09-22T04:04:56.072Z,0.00
2017-09-22T04:05:56.066Z,0.00
2017-09-22T04:06:56.087Z,0.00
2017-09-22T04:07:56.085Z,0.00
2017-09-22T04:08:56.200Z,0.00
2017-09-22T04:09:56.101Z,0.00
2017-09-22T04:10:56.211Z,0.00
2017-09-22T04:11:56.122Z,0.00
2017-09-22T04:12:56.225Z,0.00
2017-09-22T04:13:56.140Z,0.00
2017-09-22T04:14:56.241Z,0.00
2017-09-22T04:15:56.162Z,0.00
2017-09-22T04:16:56.253Z,0.00
2017-09-22T04:17:56.178Z,0.00
2017-09-22T04:18:56.267Z,0.00
2017-09-22T04:19:56.193Z,0.00
2017-09-22T04:20:56.279Z,0.00
2017-09-22T04:21:56.214Z,0.00
2017-09-22T04:22:56.290Z,0.00
2017-09-22T04:23:56.230Z,0.00
2017-09-22T04:24:56.304Z,0.00
2017-09-22T04:25:56.249Z,0.00
2017-09-22T04:26:56.315Z,0.00
2017-09-22T04:27:56.270Z,0.00
2017-09-22T04:28:56.327Z,0.00
2017-09-22T04:29:56.283Z,0.00
2017-09-22T04:30:56.342Z,0.00
2017-09-22T04:31:56.300Z,0.00
2017-09-22T04:32:56.356Z,0.00
2017-09-22T04:33:56.321Z,0.00
2017-09-22T04:34:57.398Z,0.00
2017-09-22T04:35:56.339Z,0.00
2017-09-22T04:36:56.356Z,0.00
2017-09-22T04:37:56.354Z,0.00
2017-09-22T04:38:56.369Z,0.00
2017-09-22T04:39:56.376Z,0.00
2017-09-22T04:40:56.408Z,0.00
2017-09-22T04:41:56.397Z,0.00
2017-09-22T04:42:56.418Z,0.00
2017-09-22T04:43:56.410Z,0.00
2017-09-22T04:44:56.537Z,0.00
2017-09-22T04:45:56.429Z,0.00
2017-09-22T04:46:56.550Z,0.00
2017-09-22T04:47:56.446Z,0.00
2017-09-22T04:48:56.560Z,0.00
2017-09-22T04:49:56.464Z,0.00
2017-09-22T04:50:56.579Z,0.00
2017-09-22T04:51:56.482Z,0.00
2017-09-22T04:52:56.587Z,0.00
2017-09-22T04:53:56.498Z,0.00
2017-09-22T04:54:56.645Z,0.00
2017-09-22T04:55:56.518Z,0.00
2017-09-22T04:56:56.613Z,0.00
2017-09-22T04:57:56.544Z,0.00
2017-09-22T04:58:56.626Z,0.00
2017-09-22T04:59:56.555Z,0.00
2017-09-22T05:00:56.639Z,0.00
2017-09-22T05:01:56.572Z,0.00
2017-09-22T05:02:56.653Z,0.00
2017-09-22T05:03:56.587Z,0.00
2017-09-22T05:04:56.666Z,0.00
2017-09-22T05:05:56.607Z,0.00
2017-09-22T05:06:56.677Z,0.00
2017-09-22T05:07:56.624Z,0.00
2017-09-22T05:08:56.691Z,0.00
2017-09-22T05:09:56.641Z,0.00
2017-09-22T05:10:56.703Z,0.00
2017-09-22T05:11:56.657Z,0.00
2017-09-22T05:12:56.715Z,0.00
2017-09-22T05:13:56.684Z,0.00
2017-09-22T05:14:56.728Z,0.00
2017-09-22T05:15:56.698Z,0.00
2017-09-22T05:16:56.745Z,0.00
2017-09-22T05:17:56.714Z,0.00
2017-09-22T05:18:56.724Z,0.00
2017-09-22T05:19:56.798Z,0.00
2017-09-22T05:20:56.740Z,0.00
2017-09-22T05:21:56.811Z,0.00
2017-09-22T05:22:56.757Z,0.00
2017-09-22T05:23:56.827Z,0.00
2017-09-22T05:24:56.777Z,0.00
2017-09-22T05:25:56.786Z,0.00
2017-09-22T05:26:56.794Z,0.00
2017-09-22T05:27:56.801Z,0.00
2017-09-22T05:28:56.811Z,0.00
2017-09-22T05:29:56.817Z,0.00
2017-09-22T05:30:56.831Z,5.63
2017-09-22T05:31:56.838Z,5.63
2017-09-22T05:32:56.846Z,5.63
2017-09-22T05:33:56.852Z,5.63
2017-09-22T05:34:56.871Z,5.63
2017-09-22T05:35:56.870Z,5.63
2017-09-22T05:36:56.882Z,5.63
2017-09-22T05:37:56.892Z,5.63
2017-09-22T05:38:56.899Z,5.63
2017-09-22T05:39:56.910Z,5.63
2017-09-22T05:40:56.925Z,5.63
2017-09-22T05:41:56.928Z,5.63
2017-09-22T05:42:56.938Z,5.63
2017-09-22T05:43:56.943Z,5.63
2017-09-22T05:44:56.952Z,5.63
2017-09-22T05:45:56.963Z,5.63
2017-09-22T05:46:56.967Z,11.25
2017-09-22T05:47:56.977Z,11.25
2017-09-22T05:48:56.985Z,11.25
2017-09-22T05:49:56.995Z,11.25
2017-09-22T05:50:57.003Z,11.25
2017-09-22T05:51:57.126Z,11.25
2017-09-22T05:52:57.026Z,11.25
2017-09-22T05:53:57.060Z,11.25
2017-09-22T05:54:57.040Z,11.25
2017-09-22T05:55:57.055Z,11.25
2017-09-22T05:56:57.058Z,11.25
2017-09-22T05:57:57.066Z,11.25
2017-09-22T05:58:57.075Z,11.25
2017-09-22T05:59:58.205Z,11.25
2017-09-22T06:00:57.092Z,11.25
2017-09-22T06:01:58.211Z,16.88
2017-09-22T06:02:57.107Z,16.88
2017-09-22T06:03:57.215Z,16.88
2017-09-22T06:04:57.132Z,16.88
2017-09-22T06:05:57.213Z,16.88
2017-09-22T06:06:57.146Z,16.88
2017-09-22T06:07:57.226Z,16.88
2017-09-22T06:08:57.164Z,16.88
2017-09-22T06:09:57.245Z,16.88
2017-09-22T06:10:57.178Z,16.88
2017-09-22T06:11:57.362Z,16.88
2017-09-22T06:12:57.196Z,16.88
2017-09-22T06:13:57.209Z,16.88
2017-09-22T06:14:57.215Z,22.50
2017-09-22T06:15:57.221Z,22.50
2017-09-22T06:16:57.232Z,22.50
2017-09-22T06:17:57.239Z,22.50
2017-09-22T06:18:57.257Z,22.50
2017-09-22T06:19:57.261Z,22.50
2017-09-22T06:20:57.265Z,22.50
2017-09-22T06:21:57.274Z,22.50
2017-09-22T06:22:57.282Z,22.50
2017-09-22T06:23:57.293Z,22.50
2017-09-22T06:24:57.300Z,22.50
2017-09-22T06:25:57.307Z,22.50
2017-09-22T06:26:57.321Z,22.50
2017-09-22T06:27:57.327Z,22.50
2017-09-22T06:28:57.337Z,22.50
2017-09-22T06:29:57.342Z,22.50
2017-09-22T06:30:57.350Z,22.50
2017-09-22T06:31:57.495Z,22.50
2017-09-22T06:32:57.372Z,22.50
2017-09-22T06:33:57.377Z,22.50
2017-09-22T06:34:57.515Z,22.50
2017-09-22T06:35:57.399Z,22.50
2017-09-22T06:36:57.527Z,22.50
2017-09-22T06:37:57.413Z,22.50
2017-09-22T06:38:57.539Z,22.50
2017-09-22T06:39:57.455Z,22.50
2017-09-22T06:40:57.443Z,22.50
2017-09-22T06:41:57.451Z,28.13
2017-09-22T06:42:57.567Z,28.13
2017-09-22T06:43:57.464Z,28.13
2017-09-22T06:44:57.585Z,22.50
2017-09-22T06:45:57.481Z,22.50
2017-09-22T06:46:57.492Z,22.50
2017-09-22T06:47:57.497Z,22.50
2017-09-22T06:48:57.506Z,22.50
2017-09-22T06:49:57.616Z,22.50
2017-09-22T06:50:57.523Z,22.50
2017-09-22T06:51:57.631Z,22.50
2017-09-22T06:52:57.545Z,22.50
2017-09-22T06:53:57.643Z,22.50
2017-09-22T06:54:57.557Z,22.50
2017-09-22T06:55:57.657Z,22.50
2017-09-22T06:56:57.573Z,22.50
2017-09-22T06:57:57.710Z,28.13
2017-09-22T06:58:57.591Z,28.13
2017-09-22T07:00:03.214Z,28.13
2017-09-22T07:00:57.615Z,28.13
2017-09-22T07:01:57.799Z,28.13
2017-09-22T07:02:57.626Z,28.13
2017-09-22T07:03:57.814Z,28.13
2017-09-22T07:04:57.642Z,28.13
2017-09-22T07:05:57.827Z,28.13
2017-09-22T07:06:57.658Z,28.13
2017-09-22T07:07:57.675Z,28.13
2017-09-22T07:08:57.845Z,33.75
2017-09-22T07:09:57.685Z,33.75
2017-09-22T07:10:57.862Z,33.75
2017-09-22T07:11:57.702Z,33.75
2017-09-22T07:12:57.836Z,33.75
2017-09-22T07:13:57.719Z,33.75
2017-09-22T07:14:57.840Z,33.75
2017-09-22T07:15:57.740Z,33.75
2017-09-22T07:16:57.857Z,33.75
2017-09-22T07:17:57.756Z,33.75
2017-09-22T07:18:57.864Z,33.75
2017-09-22T07:19:57.773Z,33.75
2017-09-22T07:20:57.879Z,33.75
2017-09-22T07:21:57.800Z,33.75
2017-09-22T07:22:57.796Z,33.75
2017-09-22T07:23:57.898Z,33.75
2017-09-22T07:24:57.815Z,33.75
2017-09-22T07:25:57.912Z,33.75
2017-09-22T07:26:57.829Z,33.75
2017-09-22T07:27:57.921Z,33.75
2017-09-22T07:28:57.848Z,33.75
2017-09-22T07:29:57.938Z,33.75
2017-09-22T07:30:57.869Z,33.75
2017-09-22T07:31:57.953Z,33.75
2017-09-22T07:32:57.884Z,33.75
2017-09-22T07:33:57.890Z,33.75
2017-09-22T07:34:57.907Z,33.75
2017-09-22T07:35:57.978Z,33.75
2017-09-22T07:36:57.927Z,33.75
2017-09-22T07:38:04.751Z,39.38
2017-09-22T07:38:57.936Z,39.38
2017-09-22T07:39:58.006Z,39.38
2017-09-22T07:40:57.953Z,39.38
2017-09-22T07:41:58.022Z,39.38
2017-09-22T07:42:57.969Z,39.38
2017-09-22T07:43:58.033Z,33.75
2017-09-22T07:44:57.988Z,33.75
2017-09-22T07:45:58.000Z,33.75
2017-09-22T07:46:58.000Z,33.75
2017-09-22T07:47:58.065Z,33.75
2017-09-22T07:48:58.018Z,33.75
2017-09-22T07:49:58.182Z,33.75
2017-09-22T07:50:58.037Z,33.75
2017-09-22T07:51:58.194Z,33.75
2017-09-22T07:52:58.052Z,39.38
2017-09-22T07:53:58.202Z,39.38
2017-09-22T07:54:58.070Z,39.38
2017-09-22T07:55:58.216Z,39.38
2017-09-22T07:56:58.086Z,39.38
2017-09-22T07:57:58.231Z,39.38
2017-09-22T07:58:58.102Z,39.38
2017-09-22T07:59:58.246Z,39.38
2017-09-22T08:00:58.122Z,33.75
2017-09-22T08:01:58.257Z,33.75
2017-09-22T08:02:58.134Z,33.75
2017-09-22T08:03:58.143Z,33.75
2017-09-22T08:04:58.154Z,39.38
2017-09-22T08:05:58.284Z,39.38
2017-09-22T08:06:58.170Z,39.38
2017-09-22T08:07:58.298Z,39.38
2017-09-22T08:08:58.187Z,39.38
2017-09-22T08:09:59.337Z,39.38
2017-09-22T08:10:58.204Z,39.38
2017-09-22T08:12:00.371Z,39.38
2017-09-22T08:12:58.224Z,39.38
2017-09-22T08:13:58.229Z,39.38
2017-09-22T08:14:58.242Z,39.38
2017-09-22T08:15:58.352Z,39.38
2017-09-22T08:16:58.257Z,39.38
2017-09-22T08:17:58.363Z,39.38
2017-09-22T08:18:58.277Z,39.38
2017-09-22T08:19:58.284Z,45.00
2017-09-22T08:20:58.341Z,45.00
2017-09-22T08:21:58.300Z,45.00
2017-09-22T08:22:58.398Z,45.00
2017-09-22T08:23:58.323Z,45.00
2017-09-22T08:24:58.422Z,45.00
2017-09-22T08:25:58.339Z,50.63
2017-09-22T08:26:58.427Z,45.00
2017-09-22T08:27:58.359Z,45.00
2017-09-22T08:28:58.447Z,45.00
2017-09-22T08:29:58.373Z,45.00
2017-09-22T08:30:58.462Z,50.63
2017-09-22T08:31:58.387Z,50.63
2017-09-22T08:32:58.419Z,50.63
2017-09-22T08:33:58.479Z,45.00
2017-09-22T08:34:58.417Z,45.00
2017-09-22T08:35:58.539Z,50.63
2017-09-22T08:36:58.435Z,50.63
2017-09-22T08:37:58.608Z,50.63
2017-09-22T08:38:58.453Z,45.00
2017-09-22T08:39:58.461Z,45.00
2017-09-22T08:40:58.471Z,39.38
2017-09-22T08:41:58.634Z,39.38
2017-09-22T08:42:58.494Z,39.38
2017-09-22T08:43:58.646Z,39.38
2017-09-22T08:44:58.508Z,39.38
2017-09-22T08:45:58.660Z,39.38
2017-09-22T08:46:58.528Z,33.75
2017-09-22T08:47:58.673Z,39.38
2017-09-22T08:48:58.542Z,39.38
2017-09-22T08:49:58.687Z,39.38
2017-09-22T08:50:58.561Z,39.38
2017-09-22T08:51:58.698Z,39.38
2017-09-22T08:52:58.578Z,39.38
2017-09-22T08:53:58.711Z,45.00
2017-09-22T08:54:58.602Z,45.00
2017-09-22T08:55:58.730Z,45.00
2017-09-22T08:56:58.620Z,50.63
2017-09-22T08:57:58.738Z,50.63
2017-09-22T08:58:58.634Z,50.63
2017-09-22T08:59:58.752Z,50.63
2017-09-22T09:00:58.651Z,50.63
2017-09-22T09:01:58.770Z,50.63
2017-09-22T09:02:58.667Z,50.63
2017-09-22T09:03:58.781Z,50.63
2017-09-22T09:04:58.685Z,50.63
2017-09-22T09:05:58.729Z,45.00
2017-09-22T09:06:58.705Z,45.00
2017-09-22T09:07:58.806Z,45.00
2017-09-22T09:08:58.724Z,45.00
2017-09-22T09:09:58.821Z,45.00
2017-09-22T09:10:58.743Z,39.38
2017-09-22T09:11:58.834Z,39.38
2017-09-22T09:12:58.767Z,39.38
2017-09-22T09:13:58.774Z,39.38
2017-09-22T09:14:58.960Z,45.00
2017-09-22T09:15:58.789Z,45.00
2017-09-22T09:16:58.972Z,45.00
2017-09-22T09:17:58.810Z,45.00
2017-09-22T09:18:58.986Z,45.00
2017-09-22T09:19:58.827Z,50.63
2017-09-22T09:20:58.934Z,50.63
2017-09-22T09:21:58.844Z,50.63
2017-09-22T09:22:59.023Z,50.63
2017-09-22T09:23:58.866Z,50.63
2017-09-22T09:24:59.025Z,50.63
2017-09-22T09:25:58.880Z,50.63
2017-09-22T09:26:59.038Z,50.63
2017-09-22T09:27:58.905Z,45.00
2017-09-22T09:28:59.049Z,45.00
2017-09-22T09:29:58.919Z,45.00
2017-09-22T09:30:59.065Z,50.63
2017-09-22T09:31:58.937Z,50.63
2017-09-22T09:32:59.079Z,50.63
2017-09-22T09:33:58.962Z,50.63
2017-09-22T09:34:59.092Z,50.63
2017-09-22T09:35:58.984Z,50.63
2017-09-22T09:36:59.106Z,50.63
2017-09-22T09:37:58.997Z,50.63
2017-09-22T09:38:59.124Z,50.63
2017-09-22T09:39:59.020Z,50.63
2017-09-22T09:40:59.063Z,50.63
2017-09-22T09:41:59.036Z,50.63
2017-09-22T09:42:59.147Z,50.63
2017-09-22T09:43:59.051Z,50.63
2017-09-22T09:45:00.188Z,50.63
2017-09-22T09:45:59.072Z,50.63
2017-09-22T09:46:59.279Z,50.63
2017-09-22T09:47:59.091Z,50.63
2017-09-22T09:49:00.213Z,50.63
2017-09-22T09:49:59.116Z,50.63
2017-09-22T09:50:59.311Z,50.63
2017-09-22T09:51:59.137Z,50.63
2017-09-22T09:52:59.316Z,50.63
2017-09-22T09:53:59.154Z,50.63
2017-09-22T09:54:59.158Z,50.63
2017-09-22T09:55:59.336Z,50.63
2017-09-22T09:56:59.180Z,50.63
2017-09-22T09:57:59.358Z,56.25
2017-09-22T09:58:59.196Z,56.25
2017-09-22T09:59:59.363Z,56.25
2017-09-22T10:00:59.215Z,56.25
2017-09-22T10:02:00.153Z,56.25
2017-09-22T10:02:59.237Z,56.25
2017-09-22T10:03:59.392Z,56.25
2017-09-22T10:04:59.258Z,56.25
2017-09-22T10:05:59.404Z,56.25
2017-09-22T10:06:59.279Z,56.25
2017-09-22T10:07:59.417Z,56.25
2017-09-22T10:08:59.294Z,56.25
2017-09-22T10:09:59.431Z,50.63
2017-09-22T10:10:59.310Z,50.63
2017-09-22T10:11:59.444Z,50.63
2017-09-22T10:12:59.329Z,50.63
2017-09-22T10:13:59.337Z,50.63
2017-09-22T10:14:59.348Z,50.63
2017-09-22T10:15:59.509Z,50.63
2017-09-22T10:16:59.366Z,50.63
2017-09-22T10:17:59.508Z,56.25
2017-09-22T10:18:59.386Z,56.25
2017-09-22T10:20:04.229Z,56.25
2017-09-22T10:20:59.421Z,56.25
2017-09-22T10:22:01.481Z,50.63
2017-09-22T10:22:59.426Z,56.25
2017-09-22T10:23:59.547Z,56.25
2017-09-22T10:24:59.451Z,50.63
2017-09-22T10:26:01.505Z,56.25
2017-09-22T10:26:59.464Z,56.25
2017-09-22T10:27:59.574Z,56.25
2017-09-22T10:28:59.506Z,56.25
2017-09-22T10:29:59.588Z,56.25
2017-09-22T10:30:59.526Z,56.25
2017-09-22T10:31:59.607Z,56.25
2017-09-22T10:32:59.528Z,56.25
2017-09-22T10:34:00.643Z,56.25
2017-09-22T10:34:59.542Z,56.25
2017-09-22T10:35:59.630Z,56.25
2017-09-22T10:36:59.582Z,56.25
2017-09-22T10:37:59.644Z,50.63
2017-09-22T10:38:59.605Z,50.63
2017-09-22T10:39:59.660Z,50.63
2017-09-22T10:40:59.603Z,50.63
2017-09-22T10:41:59.677Z,45.00
2017-09-22T10:42:59.624Z,45.00
2017-09-22T10:43:59.685Z,45.00
2017-09-22T10:44:59.653Z,50.63
2017-09-22T10:45:59.705Z,50.63
2017-09-22T10:46:59.669Z,50.63
2017-09-22T10:47:59.692Z,50.63
2017-09-22T10:48:59.718Z,50.63
2017-09-22T10:49:59.717Z,50.63
2017-09-22T10:50:59.837Z,50.63
2017-09-22T10:51:59.730Z,50.63
2017-09-22T10:52:59.726Z,50.63
2017-09-22T10:53:59.856Z,50.63
2017-09-22T10:54:59.741Z,50.63
2017-09-22T10:55:59.870Z,56.25
2017-09-22T10:56:59.765Z,56.25
2017-09-22T10:57:59.882Z,56.25
2017-09-22T10:58:59.783Z,56.25
2017-09-22T10:59:59.893Z,56.25
2017-09-22T11:00:59.804Z,61.88
2017-09-22T11:01:59.907Z,61.88
2017-09-22T11:02:59.825Z,56.25
2017-09-22T11:03:59.926Z,56.25
2017-09-22T11:04:59.845Z,56.25
2017-09-22T11:05:59.938Z,50.63
2017-09-22T11:06:59.874Z,50.63
2017-09-22T11:07:59.948Z,50.63
2017-09-22T11:08:59.890Z,50.63
2017-09-22T11:09:59.970Z,50.63
2017-09-22T11:10:59.906Z,50.63
2017-09-22T11:11:59.975Z,50.63
2017-09-22T11:12:59.929Z,56.25
2017-09-22T11:13:59.990Z,56.25
2017-09-22T11:14:59.948Z,61.88
2017-09-22T11:15:59.960Z,61.88
2017-09-22T11:17:00.009Z,61.88
2017-09-22T11:17:59.975Z,67.50
2017-09-22T11:19:00.127Z,67.50
2017-09-22T11:19:59.997Z,67.50
2017-09-22T11:21:00.138Z,67.50
2017-09-22T11:22:00.020Z,67.50
2017-09-22T11:23:00.151Z,73.13
2017-09-22T11:24:00.037Z,73.13
2017-09-22T11:25:00.168Z,73.13
2017-09-22T11:26:00.057Z,73.13
2017-09-22T11:27:00.069Z,73.13
2017-09-22T11:28:00.079Z,73.13
2017-09-22T11:29:00.092Z,73.13
2017-09-22T11:30:00.096Z,73.13
2017-09-22T11:31:01.130Z,73.13
2017-09-22T11:32:00.121Z,73.13
2017-09-22T11:33:00.222Z,67.50
2017-09-22T11:34:00.140Z,67.50
2017-09-22T11:35:00.236Z,67.50
2017-09-22T11:36:00.165Z,67.50
2017-09-22T11:37:00.257Z,67.50
2017-09-22T11:38:00.182Z,67.50
2017-09-22T11:39:00.261Z,67.50
2017-09-22T11:40:00.201Z,67.50
2017-09-22T11:41:00.274Z,67.50
2017-09-22T11:42:00.222Z,67.50
2017-09-22T11:43:00.389Z,67.50
2017-09-22T11:44:00.245Z,67.50
2017-09-22T11:45:00.303Z,67.50
2017-09-22T11:46:00.261Z,67.50
2017-09-22T11:47:00.418Z,67.50
2017-09-22T11:48:00.291Z,67.50
2017-09-22T11:49:00.431Z,67.50
2017-09-22T11:50:00.302Z,67.50
2017-09-22T11:51:00.449Z,67.50
2017-09-22T11:52:00.332Z,67.50
2017-09-22T11:53:00.467Z,67.50
2017-09-22T11:54:00.344Z,67.50
2017-09-22T11:55:00.475Z,61.88
2017-09-22T11:56:00.373Z,61.88
2017-09-22T11:57:00.380Z,61.88
2017-09-22T11:58:00.386Z,61.88
2017-09-22T11:59:00.503Z,61.88
2017-09-22T12:00:00.409Z,67.50
2017-09-22T12:01:00.520Z,67.50
2017-09-22T12:02:00.441Z,67.50
2017-09-22T12:03:00.529Z,67.50
2017-09-22T12:04:00.448Z,67.50
2017-09-22T12:05:00.541Z,67.50
2017-09-22T12:06:00.484Z,67.50
2017-09-22T12:07:00.557Z,67.50
2017-09-22T12:08:00.492Z,73.13
2017-09-22T12:09:00.572Z,73.13
2017-09-22T12:10:00.511Z,73.13
2017-09-22T12:11:00.579Z,67.50
2017-09-22T12:12:00.530Z,73.13
2017-09-22T12:13:00.544Z,73.13
2017-09-22T12:14:00.554Z,73.13
2017-09-22T12:15:00.567Z,73.13
2017-09-22T12:16:00.573Z,73.13
2017-09-22T12:17:00.589Z,67.50
2017-09-22T12:18:00.596Z,67.50
2017-09-22T12:19:00.716Z,67.50
2017-09-22T12:20:00.616Z,67.50
2017-09-22T12:21:00.641Z,67.50
2017-09-22T12:22:00.634Z,67.50
2017-09-22T12:23:00.646Z,67.50
2017-09-22T12:24:00.657Z,67.50
2017-09-22T12:25:00.789Z,67.50
2017-09-22T12:26:00.677Z,67.50
2017-09-22T12:27:00.791Z,67.50
2017-09-22T12:28:00.702Z,67.50
2017-09-22T12:29:11.820Z,67.50
2017-09-22T12:30:00.725Z,73.13
2017-09-22T12:31:16.749Z,73.13
2017-09-22T12:32:00.740Z,73.13
2017-09-22T12:33:00.791Z,73.13
2017-09-22T12:34:00.762Z,73.13
2017-09-22T12:35:00.809Z,73.13
2017-09-22T12:36:00.780Z,73.13
2017-09-22T12:37:00.918Z,73.13
2017-09-22T12:38:00.809Z,73.13
2017-09-22T12:39:00.937Z,73.13
2017-09-22T12:40:00.824Z,73.13
2017-09-22T12:41:00.947Z,73.13
2017-09-22T12:42:00.848Z,73.13
2017-09-22T12:43:00.960Z,67.50
2017-09-22T12:44:00.874Z,67.50
2017-09-22T12:45:00.975Z,67.50
2017-09-22T12:46:00.887Z,61.88
2017-09-22T12:47:00.900Z,61.88
2017-09-22T12:48:00.943Z,56.25
2017-09-22T12:49:01.002Z,56.25
2017-09-22T12:50:00.935Z,50.63
2017-09-22T12:51:01.018Z,50.63
2017-09-22T12:52:00.952Z,45.00
2017-09-22T12:53:01.131Z,45.00
2017-09-22T12:54:00.975Z,45.00
2017-09-22T12:55:00.987Z,45.00
2017-09-22T12:56:01.051Z,45.00
2017-09-22T12:57:01.009Z,45.00
2017-09-22T12:58:01.063Z,45.00
2017-09-22T12:59:01.028Z,45.00
2017-09-22T13:00:01.078Z,50.63
2017-09-22T13:01:01.048Z,50.63
2017-09-22T13:02:01.196Z,50.63
2017-09-22T13:03:01.071Z,50.63
2017-09-22T13:04:01.205Z,50.63